createdAt,value
2023-05-25T00:03:03.953Z,16.28
2023-05-25T00:08:06.635Z,16.09
2023-05-25T00:13:10.132Z,15.96
2023-05-25T00:18:13.124Z,15.92
2023-05-25T00:23:15.900Z,15.94
2023-05-25T00:28:18.466Z,15.95
2023-05-25T00:33:21.077Z,15.95
2023-05-25T00:38:23.669Z,16.00
2023-05-25T00:43:26.270Z,16.04
2023-05-25T00:48:29.150Z,16.01
2023-05-25T00:53:33.721Z,15.97
2023-05-25T00:58:39.410Z,15.97
2023-05-25T01:03:46.701Z,15.98
2023-05-25T01:08:52.660Z,15.90
2023-05-25T01:13:57.324Z,15.84
2023-05-25T01:18:59.858Z,15.78
2023-05-25T01:24:11.990Z,15.71
2023-05-25T01:29:17.787Z,15.64
2023-05-25T01:34:21.291Z,15.57
2023-05-25T01:39:24.036Z,15.50
2023-05-25T01:44:26.811Z,15.44
2023-05-25T01:49:56.195Z,15.39
2023-05-25T01:55:16.589Z,15.33
2023-05-25T02:00:21.357Z,15.27
2023-05-25T02:05:23.991Z,15.21
2023-05-25T02:10:26.596Z,15.14
2023-05-25T02:15:33.711Z,15.05
2023-05-25T02:20:37.020Z,15.00
2023-05-25T02:25:39.673Z,14.97
2023-05-25T02:30:42.251Z,14.94
2023-05-25T02:35:45.083Z,14.93
2023-05-25T02:40:47.847Z,14.91
2023-05-25T02:45:50.535Z,14.92
2023-05-25T02:50:53.143Z,14.92
2023-05-25T02:55:56.384Z,14.92
2023-05-25T03:01:00.261Z,14.95
2023-05-25T03:06:06.958Z,15.00
2023-05-25T03:11:09.979Z,15.05
2023-05-25T03:16:12.700Z,15.10
2023-05-25T03:21:15.576Z,15.17
2023-05-25T03:26:18.798Z,15.22
2023-05-25T03:31:21.607Z,15.26
2023-05-25T03:36:27.472Z,15.31
2023-05-25T03:41:30.187Z,15.39
2023-05-25T03:46:33.048Z,15.45
2023-05-25T03:51:36.662Z,15.48
2023-05-25T03:56:39.310Z,15.50
2023-05-25T04:01:41.951Z,15.53
2023-05-25T04:06:49.071Z,15.57
2023-05-25T04:11:51.829Z,15.68
2023-05-25T04:16:54.588Z,15.84
2023-05-25T04:21:57.290Z,16.02
2023-05-25T04:27:00.393Z,16.19
2023-05-25T04:32:03.223Z,16.37
2023-05-25T04:37:08.851Z,16.54
2023-05-25T04:42:12.846Z,16.61
2023-05-25T04:47:16.482Z,16.63
2023-05-25T04:52:19.092Z,16.61
2023-05-25T04:57:21.668Z,16.65
2023-05-25T05:02:24.827Z,16.67
2023-05-25T05:07:27.465Z,16.74
2023-05-25T05:12:30.015Z,16.82
2023-05-25T05:17:32.793Z,16.92
2023-05-25T05:22:36.865Z,17.17
2023-05-25T05:27:39.619Z,17.43
2023-05-25T05:32:43.239Z,17.60
2023-05-25T05:37:48.277Z,17.78
2023-05-25T05:42:50.944Z,17.96
2023-05-25T05:47:53.519Z,18.11
2023-05-25T05:52:56.294Z,18.27
2023-05-25T05:57:58.924Z,18.37
2023-05-25T06:03:01.772Z,18.47
2023-05-25T06:08:05.865Z,18.59
2023-05-25T06:13:08.731Z,18.79
2023-05-25T06:18:11.393Z,18.95
2023-05-25T06:23:14.229Z,19.14
2023-05-25T06:28:16.777Z,19.28
2023-05-25T06:33:19.329Z,19.45
2023-05-25T06:38:22.283Z,19.62
2023-05-25T06:43:24.952Z,19.69
2023-05-25T06:48:27.558Z,19.76
2023-05-25T06:53:30.203Z,19.81
2023-05-25T06:58:32.773Z,19.97
2023-05-25T07:03:35.615Z,20.03
2023-05-25T07:08:38.353Z,20.18
2023-05-25T07:13:41.047Z,20.33
2023-05-25T07:18:43.873Z,20.48
2023-05-25T07:23:46.420Z,20.60
2023-05-25T07:28:49.086Z,20.72
2023-05-25T07:33:51.878Z,20.80
2023-05-25T07:38:54.706Z,20.92
2023-05-25T07:43:57.246Z,21.10
2023-05-25T07:48:59.893Z,21.33
2023-05-25T07:54:02.609Z,21.56
2023-05-25T07:59:05.818Z,22.16
2023-05-25T08:04:08.578Z,22.75
2023-05-25T08:09:13.220Z,22.86
2023-05-25T08:14:16.450Z,23.03
2023-05-25T08:19:19.461Z,23.29
2023-05-25T08:24:22.117Z,23.17
2023-05-25T08:29:24.807Z,22.99
2023-05-25T08:34:28.436Z,22.80
2023-05-25T08:39:32.905Z,22.68
2023-05-25T08:44:37.338Z,22.61
2023-05-25T08:49:41.686Z,22.80
2023-05-25T08:54:45.784Z,23.15
2023-05-25T09:00:10.490Z,23.27
2023-05-25T09:05:14.040Z,23.40
2023-05-25T09:10:17.136Z,23.33
2023-05-25T09:15:20.097Z,23.14
2023-05-25T09:20:24.589Z,23.33
2023-05-25T09:25:29.155Z,23.76
2023-05-25T09:30:32.983Z,24.14
2023-05-25T09:35:35.614Z,24.65
2023-05-25T09:40:38.805Z,25.23
2023-05-25T09:45:41.395Z,25.61
2023-05-25T09:50:45.497Z,26.11
2023-05-25T09:55:54.257Z,26.28
2023-05-25T10:00:57.352Z,25.92
2023-05-25T10:06:01.134Z,25.75
2023-05-25T10:11:05.327Z,25.74
2023-05-25T10:16:10.127Z,25.92
2023-05-25T10:21:15.851Z,26.10
2023-05-25T10:26:21.913Z,26.42
2023-05-25T10:31:28.194Z,26.57
2023-05-25T10:36:33.549Z,26.54
2023-05-25T10:41:36.170Z,26.59
2023-05-25T10:46:39.487Z,26.38
2023-05-25T10:51:43.741Z,26.44
2023-05-25T10:57:24.813Z,26.71
2023-05-25T11:02:32.108Z,26.94
2023-05-25T11:07:52.823Z,27.01
2023-05-25T11:13:21.197Z,26.80
2023-05-25T11:18:23.821Z,26.47
2023-05-25T11:23:26.457Z,26.18
2023-05-25T11:28:32.342Z,26.09
2023-05-25T11:33:35.048Z,26.05
2023-05-25T11:38:52.827Z,26.02
2023-05-25T11:44:06.799Z,26.13
2023-05-25T11:49:09.706Z,26.17
2023-05-25T11:54:30.032Z,26.36
2023-05-25T11:59:32.846Z,26.45
2023-05-25T12:04:35.756Z,26.36
2023-05-25T12:09:38.403Z,26.24
2023-05-25T12:14:49.397Z,26.26
2023-05-25T12:19:52.055Z,26.46
2023-05-25T12:24:54.786Z,26.61
2023-05-25T12:29:59.122Z,26.76
2023-05-25T12:35:06.353Z,26.99
2023-05-25T12:40:23.209Z,26.98
2023-05-25T12:45:26.059Z,26.78
2023-05-25T12:50:29.493Z,26.77
2023-05-25T12:55:35.486Z,27.10
2023-05-25T13:00:39.516Z,27.45
2023-05-25T13:05:42.275Z,27.73
2023-05-25T13:10:48.573Z,27.71
2023-05-25T13:15:51.169Z,27.59
2023-05-25T13:20:56.485Z,27.35
2023-05-25T13:25:59.765Z,27.21
2023-05-25T13:31:02.686Z,27.15
2023-05-25T13:36:08.590Z,27.31
2023-05-25T13:41:11.465Z,27.48
2023-05-25T13:46:25.845Z,27.37
2023-05-25T13:51:38.129Z,27.10
2023-05-25T13:56:42.393Z,26.90
2023-05-25T14:01:45.310Z,26.71
2023-05-25T14:06:48.133Z,26.79
2023-05-25T14:11:53.628Z,27.55
2023-05-25T14:16:56.391Z,28.27
2023-05-25T14:22:12.518Z,28.58
2023-05-25T14:27:20.880Z,28.06
2023-05-25T14:32:23.822Z,27.49
2023-05-25T14:37:26.607Z,27.09
2023-05-25T14:42:30.227Z,27.74
2023-05-25T14:47:32.844Z,28.70
2023-05-25T14:52:36.521Z,29.02
2023-05-25T14:57:39.638Z,28.21
2023-05-25T15:02:42.433Z,27.53
2023-05-25T15:07:45.185Z,26.71
2023-05-25T15:12:47.799Z,25.90
2023-05-25T15:17:50.561Z,25.21
2023-05-25T15:22:53.888Z,24.42
2023-05-25T15:27:56.623Z,23.85
2023-05-25T15:32:59.255Z,23.28
2023-05-25T15:38:02.010Z,22.74
2023-05-25T15:43:04.848Z,22.31
2023-05-25T15:48:10.132Z,22.17
2023-05-25T15:53:13.025Z,22.31
2023-05-25T15:58:17.756Z,22.51
2023-05-25T16:03:20.389Z,22.70
2023-05-25T16:08:23.891Z,23.14
2023-05-25T16:13:26.622Z,24.65
2023-05-25T16:18:29.166Z,26.81
2023-05-25T16:23:31.888Z,27.30
2023-05-25T16:28:34.986Z,25.97
2023-05-25T16:33:39.078Z,24.99
2023-05-25T16:38:42.017Z,24.33
2023-05-25T16:43:44.864Z,23.82
2023-05-25T16:48:47.840Z,23.34
2023-05-25T16:53:52.420Z,23.16
2023-05-25T16:58:56.453Z,23.70
2023-05-25T17:03:59.578Z,25.06
2023-05-25T17:09:02.579Z,25.25
2023-05-25T17:14:05.858Z,24.22
2023-05-25T17:19:10.672Z,23.33
2023-05-25T17:24:13.526Z,22.70
2023-05-25T17:29:16.418Z,22.12
2023-05-25T17:34:19.704Z,21.68
2023-05-25T17:39:22.609Z,21.21
2023-05-25T17:44:26.036Z,20.86
2023-05-25T17:49:29.315Z,20.56
2023-05-25T17:54:32.015Z,20.19
2023-05-25T17:59:36.411Z,19.85
2023-05-25T18:04:39.570Z,19.49
2023-05-25T18:09:42.563Z,19.20
2023-05-25T18:14:45.989Z,18.88
2023-05-25T18:19:49.436Z,18.56
2023-05-25T18:24:52.035Z,18.33
2023-05-25T18:29:55.127Z,18.13
2023-05-25T18:34:57.713Z,17.95
2023-05-25T18:40:00.641Z,17.77
2023-05-25T18:45:03.426Z,17.54
2023-05-25T18:50:07.209Z,17.33
2023-05-25T18:55:10.812Z,17.12
2023-05-25T19:00:14.804Z,16.92
2023-05-25T19:05:18.481Z,16.75
2023-05-25T19:10:22.208Z,16.60
2023-05-25T19:15:25.459Z,16.49
2023-05-25T19:20:28.371Z,16.41
2023-05-25T19:25:31.477Z,16.35
2023-05-25T19:30:34.921Z,16.30
2023-05-25T19:35:38.958Z,16.27
2023-05-25T19:40:41.889Z,16.26
2023-05-25T19:45:45.089Z,16.28
2023-05-25T19:50:48.969Z,16.30
2023-05-25T19:55:52.159Z,16.30
2023-05-25T20:00:55.146Z,16.30
2023-05-25T20:05:58.206Z,16.25
2023-05-25T20:11:01.591Z,16.22
2023-05-25T20:16:04.734Z,16.15
2023-05-25T20:21:07.712Z,16.05
2023-05-25T20:26:10.419Z,15.98
2023-05-25T20:31:12.992Z,15.90
2023-05-25T20:36:16.629Z,15.83
2023-05-25T20:41:19.421Z,15.79
2023-05-25T20:46:22.220Z,15.73
2023-05-25T20:51:24.845Z,15.66
2023-05-25T20:56:27.730Z,15.58
2023-05-25T21:01:30.663Z,15.48
2023-05-25T21:06:33.854Z,15.36
2023-05-25T21:11:36.540Z,15.23
2023-05-25T21:16:39.357Z,15.12
2023-05-25T21:21:42.251Z,15.00
2023-05-25T21:26:44.821Z,14.89
2023-05-25T21:31:47.524Z,14.78
2023-05-25T21:36:50.300Z,14.66
2023-05-25T21:41:52.908Z,14.55
2023-05-25T21:46:55.679Z,14.44
2023-05-25T21:51:58.385Z,14.31
2023-05-25T21:57:01.790Z,14.19
2023-05-25T22:02:04.664Z,14.05
2023-05-25T22:07:07.251Z,13.94
2023-05-25T22:12:11.916Z,13.84
2023-05-25T22:17:16.100Z,13.74
2023-05-25T22:22:18.655Z,13.64
2023-05-25T22:27:21.242Z,13.54
2023-05-25T22:32:23.967Z,13.44
2023-05-25T22:37:26.815Z,13.36
2023-05-25T22:42:29.433Z,13.24
2023-05-25T22:47:32.239Z,13.09
2023-05-25T22:52:34.846Z,12.94
2023-05-25T22:57:37.978Z,12.79
2023-05-25T23:02:40.705Z,12.67
2023-05-25T23:07:43.782Z,12.55
2023-05-25T23:12:46.743Z,12.41
2023-05-25T23:17:49.396Z,12.26
2023-05-25T23:22:52.001Z,12.13
2023-05-25T23:27:54.591Z,12.04
2023-05-25T23:32:57.254Z,11.99
2023-05-25T23:38:01.535Z,11.93
2023-05-25T23:43:04.269Z,11.87
2023-05-25T23:48:06.889Z,11.82
2023-05-25T23:53:09.469Z,11.83
2023-05-25T23:58:12.051Z,11.84
